Time;durP1;ratioP1;P1;durP2;ratioP2;P2;SDS_P1;SDS_P2;PMS_P1;PMS_P2;Temp;Humidity;BMP_temperature;BMP_pressure;BME280_temperature;BME280_humidity;BME280_pressure;Samples;Min_cycle;Max_cycle;Signal;HPM_P1;HPM_P2
2024/01/13 00:00:55;;;;;;;73.97;38.15;;;1.70;99.90;;;;;;4248534;27;20371;-64
2024/01/13 00:02:57;;;;;;;69.97;35.85;;;1.80;99.90;;;;;;4248989;27;20039;-66
2024/01/13 00:04:59;;;;;;;71.07;34.65;;;1.80;99.90;;;;;;4248958;27;20047;-63
2024/01/13 00:07:01;;;;;;;61.05;34.22;;;1.90;99.90;;;;;;4249454;27;20100;-63
2024/01/13 00:09:04;;;;;;;60.72;33.70;;;1.80;99.90;;;;;;4249697;27;20104;-64
2024/01/13 00:11:06;;;;;;;62.88;33.30;;;1.80;99.90;;;;;;4249444;27;20115;-63
2024/01/13 00:13:09;;;;;;;59.95;33.35;;;1.80;99.90;;;;;;4249197;27;20047;-63
2024/01/13 00:15:11;;;;;;;56.55;32.85;;;1.80;99.90;;;;;;4248845;27;20043;-63
2024/01/13 00:17:14;;;;;;;68.07;37.80;;;1.90;99.90;;;;;;4248284;27;20405;-63
2024/01/13 00:19:16;;;;;;;71.40;36.70;;;1.90;99.90;;;;;;4247794;27;20088;-63
2024/01/13 00:21:19;;;;;;;68.47;37.03;;;2.00;99.90;;;;;;4248158;27;20040;-63
2024/01/13 00:23:21;;;;;;;77.82;41.40;;;2.10;99.90;;;;;;4247193;27;20055;-63
2024/01/13 00:25:23;;;;;;;83.32;42.15;;;2.10;99.90;;;;;;4247611;27;20125;-64
2024/01/13 00:27:25;;;;;;;70.18;37.05;;;2.10;99.90;;;;;;4232944;27;20441;-64
2024/01/13 00:29:27;;;;;;;75.88;40.08;;;2.10;99.90;;;;;;4243471;27;20134;-63
2024/01/13 00:31:30;;;;;;;75.82;40.28;;;2.00;99.90;;;;;;4247690;27;20382;-63
2024/01/13 00:33:33;;;;;;;79.03;40.20;;;1.90;99.90;;;;;;4247989;27;20101;-63
2024/01/13 00:35:36;;;;;;;86.40;41.85;;;1.80;99.90;;;;;;4247917;27;20043;-63
2024/01/13 00:37:38;;;;;;;71.28;38.38;;;1.70;99.90;;;;;;4247843;27;20212;-63
2024/01/13 00:39:40;;;;;;;69.63;37.15;;;1.60;99.90;;;;;;4247820;28;20481;-64
2024/01/13 00:41:42;;;;;;;73.10;38.55;;;1.70;99.90;;;;;;4248023;28;20043;-63
2024/01/13 00:43:45;;;;;;;62.80;35.42;;;1.70;99.90;;;;;;4247222;28;20170;-63
2024/01/13 00:45:47;;;;;;;63.28;33.67;;;1.80;99.90;;;;;;4247701;28;20047;-63
2024/01/13 00:47:49;;;;;;;67.78;34.05;;;1.80;99.90;;;;;;4229105;28;20044;-63
2024/01/13 00:49:52;;;;;;;66.00;35.13;;;1.80;99.90;;;;;;4247687;28;20043;-63
2024/01/13 00:51:55;;;;;;;60.70;34.13;;;1.80;99.90;;;;;;4247466;28;21030;-63
2024/01/13 00:53:58;;;;;;;69.05;36.20;;;1.70;99.90;;;;;;4247386;28;20640;-63
2024/01/13 00:56:00;;;;;;;69.95;36.03;;;1.60;99.90;;;;;;4247544;28;20049;-63
2024/01/13 00:58:02;;;;;;;72.15;36.85;;;1.60;99.90;;;;;;4247280;28;20047;-63
2024/01/13 01:00:06;;;;;;;66.63;34.70;;;1.70;99.90;;;;;;4247478;28;20047;-64
2024/01/13 01:02:09;;;;;;;66.72;33.75;;;1.70;99.90;;;;;;4247517;28;20076;-63
2024/01/13 01:04:11;;;;;;;72.68;35.85;;;1.70;99.90;;;;;;4247985;28;20071;-67
2024/01/13 01:06:14;;;;;;;52.13;27.92;;;1.80;99.90;;;;;;4248209;28;20085;-64
2024/01/13 01:08:17;;;;;;;62.72;31.90;;;1.90;99.90;;;;;;4248154;28;20039;-62
2024/01/13 01:10:28;;;;;;;57.63;29.88;;;1.80;99.90;;;;;;4247654;28;20047;-64
2024/01/13 01:12:30;;;;;;;57.72;30.40;;;1.80;99.90;;;;;;4247133;28;20039;-62
2024/01/13 01:14:32;;;;;;;54.95;28.80;;;1.80;99.90;;;;;;4229337;28;20124;-63
2024/01/13 01:16:34;;;;;;;55.58;27.75;;;1.80;99.90;;;;;;4248017;28;20452;-63
2024/01/13 01:18:37;;;;;;;54.60;29.95;;;1.80;99.90;;;;;;4248131;28;20043;-63
2024/01/13 01:20:47;;;;;;;52.47;29.52;;;1.80;99.90;;;;;;4248182;28;20550;-63
2024/01/13 01:22:50;;;;;;;48.17;27.38;;;1.90;99.90;;;;;;4248270;28;20071;-62
2024/01/13 01:24:53;;;;;;;55.45;27.70;;;1.90;99.90;;;;;;4247566;28;20456;-63
2024/01/13 01:26:55;;;;;;;50.53;26.55;;;2.00;99.90;;;;;;4236408;28;20063;-63
2024/01/13 01:28:57;;;;;;;56.85;30.35;;;2.20;99.90;;;;;;4239094;28;20051;-63
2024/01/13 01:30:59;;;;;;;54.30;29.30;;;2.10;99.90;;;;;;4247453;28;20044;-63
2024/01/13 01:33:01;;;;;;;61.15;31.25;;;2.10;99.90;;;;;;4247451;28;20051;-72
2024/01/13 01:35:05;;;;;;;57.33;29.05;;;2.00;99.90;;;;;;4250085;27;20100;-63
2024/01/13 01:37:07;;;;;;;52.90;28.27;;;2.00;99.90;;;;;;4233315;28;20108;-63
2024/01/13 01:39:11;;;;;;;59.42;30.52;;;2.00;99.90;;;;;;4250577;27;20047;-63
2024/01/13 01:41:16;;;;;;;61.80;30.60;;;2.00;99.90;;;;;;4250081;27;20517;-62
2024/01/13 01:43:20;;;;;;;53.38;28.67;;;2.00;99.90;;;;;;4250204;27;20055;-64
2024/01/13 01:45:23;;;;;;;55.20;28.20;;;2.00;99.90;;;;;;4250710;27;20043;-64
2024/01/13 01:47:27;;;;;;;53.75;26.77;;;2.00;99.90;;;;;;4232427;28;20060;-64
2024/01/13 01:49:29;;;;;;;33.33;18.50;;;1.90;99.90;;;;;;4250246;27;20047;-64
2024/01/13 01:51:32;;;;;;;53.38;25.63;;;2.00;99.90;;;;;;4232144;28;20421;-63
2024/01/13 01:53:36;;;;;;;49.55;26.13;;;2.00;99.90;;;;;;4250689;27;20051;-64
2024/01/13 01:55:39;;;;;;;48.58;26.45;;;2.00;99.90;;;;;;4250075;27;20104;-63
2024/01/13 01:57:42;;;;;;;38.03;20.77;;;2.10;99.90;;;;;;4250260;27;20039;-63
2024/01/13 01:59:44;;;;;;;50.38;27.15;;;2.10;99.90;;;;;;4250105;27;20455;-65
2024/01/13 02:01:47;;;;;;;49.65;27.27;;;2.10;99.90;;;;;;4250059;27;20078;-63
2024/01/13 02:03:50;;;;;;;49.63;29.35;;;2.20;99.90;;;;;;4250377;27;20053;-63
2024/01/13 02:05:53;;;;;;;46.67;26.63;;;2.10;99.90;;;;;;4252949;27;20063;-64
2024/01/13 02:07:55;;;;;;;58.38;31.02;;;2.00;99.90;;;;;;4253531;27;20111;-64
2024/01/13 02:09:58;;;;;;;50.58;28.20;;;2.10;99.90;;;;;;4253247;27;20416;-64
2024/01/13 02:12:02;;;;;;;62.78;30.00;;;2.00;99.90;;;;;;4252933;27;20043;-63
2024/01/13 02:14:04;;;;;;;52.63;27.77;;;2.00;99.90;;;;;;4252576;27;20043;-64
2024/01/13 02:16:08;;;;;;;48.20;27.02;;;2.10;99.90;;;;;;4252346;27;20122;-65
2024/01/13 02:18:10;;;;;;;41.30;22.23;;;2.20;99.90;;;;;;4250479;27;20043;-63
2024/01/13 02:20:25;;;;;;;42.45;23.55;;;2.30;99.90;;;;;;4250544;27;20055;-63
2024/01/13 02:22:28;;;;;;;53.05;29.27;;;2.20;99.90;;;;;;4250374;27;20039;-63
2024/01/13 02:24:30;;;;;;;54.83;28.30;;;2.20;99.90;;;;;;4250111;27;20126;-65
2024/01/13 02:26:34;;;;;;;55.88;30.00;;;2.20;99.90;;;;;;4230904;28;20051;-64
2024/01/13 02:28:37;;;;;;;51.97;27.70;;;2.20;99.90;;;;;;4249661;27;20074;-63
2024/01/13 02:30:48;;;;;;;53.42;28.33;;;2.20;99.90;;;;;;4250087;27;20053;-63
2024/01/13 02:32:51;;;;;;;51.90;27.42;;;2.10;99.90;;;;;;4250353;27;20096;-64
2024/01/13 02:34:53;;;;;;;52.25;28.05;;;2.20;99.90;;;;;;4250493;27;20074;-63
2024/01/13 02:36:55;;;;;;;53.83;28.10;;;2.00;99.90;;;;;;4249758;27;20043;-63
2024/01/13 02:38:59;;;;;;;46.70;26.25;;;1.90;99.90;;;;;;4249728;27;20427;-63
2024/01/13 02:41:01;;;;;;;45.00;24.38;;;2.00;99.90;;;;;;4249283;27;20039;-64
2024/01/13 02:43:04;;;;;;;58.63;29.08;;;2.10;99.90;;;;;;4249402;27;20438;-63
2024/01/13 02:45:06;;;;;;;54.92;28.65;;;2.10;99.90;;;;;;4231185;28;20051;-63
2024/01/13 02:47:09;;;;;;;47.35;25.73;;;2.00;99.90;;;;;;4248924;27;20480;-63
2024/01/13 02:49:12;;;;;;;52.03;27.88;;;2.10;99.90;;;;;;4249414;27;20043;-63
2024/01/13 02:51:16;;;;;;;52.97;27.70;;;2.10;99.90;;;;;;4249257;27;20129;-63
2024/01/13 02:53:20;;;;;;;49.50;27.40;;;2.10;99.90;;;;;;4249392;27;20120;-62
2024/01/13 02:55:23;;;;;;;49.80;27.42;;;2.10;99.90;;;;;;4248967;27;20051;-62
2024/01/13 02:57:26;;;;;;;46.22;24.55;;;2.10;99.90;;;;;;4249168;27;20462;-63
2024/01/13 02:59:28;;;;;;;45.25;25.15;;;2.20;99.90;;;;;;4249118;27;20083;-63
2024/01/13 03:01:30;;;;;;;48.78;24.95;;;2.10;99.90;;;;;;4249335;27;20039;-63
2024/01/13 03:03:37;;;;;;;43.70;23.90;;;2.20;99.90;;;;;;4248979;27;20050;-63
2024/01/13 03:05:41;;;;;;;46.35;24.30;;;2.10;99.90;;;;;;4249037;27;20123;-64
2024/01/13 03:07:43;;;;;;;43.50;24.08;;;2.20;99.90;;;;;;4249003;27;20043;-64
2024/01/13 03:09:45;;;;;;;44.47;24.38;;;2.20;99.90;;;;;;4248893;27;20133;-63
2024/01/13 03:11:49;;;;;;;43.25;24.90;;;2.10;99.90;;;;;;4249152;27;20078;-65
2024/01/13 03:13:56;;;;;;;48.78;24.73;;;2.10;99.90;;;;;;4249227;27;20131;-64
2024/01/13 03:16:03;;;;;;;42.65;23.85;;;2.10;99.90;;;;;;4249299;27;20065;-64
2024/01/13 03:18:05;;;;;;;45.58;23.30;;;2.10;99.90;;;;;;4249387;27;20046;-63
2024/01/13 03:20:10;;;;;;;44.80;23.95;;;2.10;99.90;;;;;;4248956;27;20116;-64
2024/01/13 03:22:12;;;;;;;42.20;23.35;;;2.10;99.90;;;;;;4249547;27;20398;-64
2024/01/13 03:24:15;;;;;;;49.10;25.65;;;2.10;99.90;;;;;;4232255;28;20559;-64
2024/01/13 03:26:17;;;;;;;42.88;24.08;;;2.00;99.90;;;;;;4245408;27;20046;-63
2024/01/13 03:28:21;;;;;;;40.97;23.30;;;2.00;99.90;;;;;;4236838;27;20047;-64
2024/01/13 03:30:34;;;;;;;42.70;22.98;;;2.10;99.90;;;;;;4249808;27;20051;-63
2024/01/13 03:32:36;;;;;;;39.00;21.98;;;2.10;99.90;;;;;;4248829;27;20070;-63
2024/01/13 03:34:39;;;;;;;40.83;21.95;;;2.00;99.90;;;;;;4249501;27;20174;-63
2024/01/13 03:36:41;;;;;;;42.35;22.60;;;2.00;99.90;;;;;;4249123;27;20496;-65
2024/01/13 03:38:43;;;;;;;34.38;19.33;;;2.00;99.90;;;;;;4249209;27;20039;-67
2024/01/13 03:40:46;;;;;;;31.20;18.02;;;2.00;99.90;;;;;;4249655;27;20553;-64
2024/01/13 03:42:48;;;;;;;34.30;18.98;;;2.00;99.90;;;;;;4249799;27;20067;-65
2024/01/13 03:44:54;;;;;;;33.17;19.55;;;2.10;99.90;;;;;;4248947;27;20043;-64
2024/01/13 03:46:56;;;;;;;30.92;17.20;;;2.00;99.90;;;;;;4248972;27;20134;-63
2024/01/13 03:48:59;;;;;;;33.33;19.25;;;1.90;99.90;;;;;;4231130;28;20399;-64
2024/01/13 03:51:02;;;;;;;32.95;18.60;;;1.80;99.90;;;;;;4249497;27;20140;-63
2024/01/13 03:53:06;;;;;;;35.08;19.05;;;1.90;99.90;;;;;;4248852;27;20467;-65
2024/01/13 03:55:08;;;;;;;31.73;18.25;;;1.80;99.90;;;;;;4248709;27;20482;-64
2024/01/13 03:57:11;;;;;;;34.05;18.50;;;1.70;99.90;;;;;;4248372;27;20066;-67
2024/01/13 03:59:15;;;;;;;33.85;18.83;;;1.60;99.90;;;;;;4247867;27;20122;-64
2024/01/13 04:01:18;;;;;;;32.22;18.52;;;1.60;99.90;;;;;;4249428;27;20043;-64
2024/01/13 04:03:20;;;;;;;34.55;19.02;;;1.60;99.90;;;;;;4248756;27;20112;-64
2024/01/13 04:05:23;;;;;;;36.90;20.42;;;1.70;99.90;;;;;;4249546;27;20043;-63
2024/01/13 04:07:26;;;;;;;34.00;19.40;;;1.70;99.90;;;;;;4249789;27;20093;-63
2024/01/13 04:09:28;;;;;;;39.83;22.00;;;1.80;99.90;;;;;;4248722;27;20069;-64
2024/01/13 04:11:30;;;;;;;41.60;22.33;;;1.80;99.90;;;;;;4249342;27;20039;-64
2024/01/13 04:13:32;;;;;;;37.78;20.83;;;1.80;99.90;;;;;;4248405;27;20047;-64
2024/01/13 04:15:34;;;;;;;36.47;20.20;;;2.00;99.90;;;;;;4249117;27;20043;-64
2024/01/13 04:17:38;;;;;;;37.25;20.75;;;2.00;99.90;;;;;;4249135;27;20047;-66
2024/01/13 04:19:40;;;;;;;39.97;21.52;;;2.00;99.90;;;;;;4250160;27;20126;-64
2024/01/13 04:21:43;;;;;;;34.97;20.38;;;2.00;99.90;;;;;;4250168;27;20069;-64
2024/01/13 04:23:45;;;;;;;36.95;19.92;;;2.00;99.90;;;;;;4250352;27;20039;-64
2024/01/13 04:25:47;;;;;;;41.40;21.52;;;2.00;99.90;;;;;;4248694;27;20044;-64
2024/01/13 04:27:52;;;;;;;37.50;20.45;;;2.00;99.90;;;;;;4232485;28;20448;-63
2024/01/13 04:29:54;;;;;;;42.60;21.90;;;2.00;99.90;;;;;;4248929;27;20091;-67
2024/01/13 04:31:56;;;;;;;40.78;22.08;;;2.00;99.90;;;;;;4249425;27;20053;-63
2024/01/13 04:34:00;;;;;;;38.38;20.77;;;2.00;99.90;;;;;;4248736;27;20488;-64
2024/01/13 04:36:04;;;;;;;31.33;19.50;;;2.00;99.90;;;;;;4248433;27;20047;-63
2024/01/13 04:38:06;;;;;;;35.38;20.45;;;1.90;99.90;;;;;;4248265;27;20387;-64
2024/01/13 04:40:08;;;;;;;39.60;22.67;;;2.10;99.90;;;;;;4230066;28;20198;-65
2024/01/13 04:42:11;;;;;;;41.30;21.90;;;2.00;99.90;;;;;;4248783;28;20464;-63
2024/01/13 04:44:13;;;;;;;41.42;22.50;;;2.00;99.90;;;;;;4248845;28;20063;-65
2024/01/13 04:46:15;;;;;;;40.95;21.40;;;2.10;99.90;;;;;;4248646;28;20481;-63
2024/01/13 04:48:17;;;;;;;38.60;21.77;;;2.00;99.90;;;;;;4249416;28;20048;-63
2024/01/13 04:50:21;;;;;;;37.42;20.48;;;2.00;99.90;;;;;;4248556;28;20184;-63
2024/01/13 04:52:24;;;;;;;42.85;22.50;;;2.00;99.90;;;;;;4248464;28;20043;-64
2024/01/13 04:54:26;;;;;;;37.92;20.25;;;1.90;99.90;;;;;;4248728;28;20071;-65
2024/01/13 04:56:28;;;;;;;42.92;23.17;;;1.90;99.90;;;;;;4248317;28;20050;-64
2024/01/13 04:58:30;;;;;;;40.65;21.55;;;1.90;99.90;;;;;;4248391;28;20050;-64
2024/01/13 05:00:33;;;;;;;40.65;21.33;;;1.90;99.90;;;;;;4248111;28;20051;-64
2024/01/13 05:02:35;;;;;;;36.90;20.13;;;1.70;99.90;;;;;;4248094;28;20154;-64
2024/01/13 05:04:50;;;;;;;37.50;20.58;;;1.80;99.90;;;;;;4256153;28;20147;-81
2024/01/13 05:06:54;;;;;;;33.47;18.75;;;1.90;99.90;;;;;;4238116;28;20430;-81
2024/01/13 05:08:56;;;;;;;36.03;21.65;;;1.90;99.90;;;;;;4254953;27;20048;-81
2024/01/13 05:10:59;;;;;;;37.58;20.15;;;1.80;99.90;;;;;;4258087;27;20460;-81
2024/01/13 05:13:01;;;;;;;39.17;21.02;;;1.90;99.90;;;;;;4258277;27;20126;-82
2024/01/13 05:15:04;;;;;;;38.85;21.80;;;1.80;99.90;;;;;;4260539;27;20043;-81
2024/01/13 05:17:06;;;;;;;35.80;20.27;;;1.80;99.90;;;;;;4242600;28;20047;-82
2024/01/13 05:19:09;;;;;;;34.47;19.45;;;1.80;99.90;;;;;;4259962;27;20074;-81
2024/01/13 05:21:12;;;;;;;36.65;19.45;;;2.00;99.90;;;;;;4262031;27;20054;-81
2024/01/13 05:23:16;;;;;;;34.08;20.38;;;1.80;99.90;;;;;;4261174;27;20122;-81
2024/01/13 05:25:18;;;;;;;38.40;20.80;;;1.80;99.90;;;;;;4261853;27;20043;-81
2024/01/13 05:27:20;;;;;;;34.97;20.27;;;1.70;99.90;;;;;;4264404;27;20047;-79
2024/01/13 05:29:23;;;;;;;34.70;19.45;;;1.80;99.90;;;;;;4244259;28;20488;-80
2024/01/13 05:31:25;;;;;;;32.90;18.98;;;1.90;99.90;;;;;;4262084;27;20048;-80
2024/01/13 05:33:28;;;;;;;33.47;19.33;;;1.90;99.90;;;;;;4262114;27;20081;-81
2024/01/13 05:35:30;;;;;;;32.35;18.23;;;2.00;99.90;;;;;;4263312;27;20428;-80
2024/01/13 05:37:32;;;;;;;30.20;18.13;;;2.10;99.90;;;;;;4261527;27;20050;-81
2024/01/13 05:39:36;;;;;;;31.30;18.48;;;2.10;99.90;;;;;;4261352;27;20043;-82
2024/01/13 05:41:38;;;;;;;34.10;20.02;;;2.20;99.90;;;;;;4261975;27;20043;-82
2024/01/13 05:43:40;;;;;;;37.35;20.55;;;2.10;99.90;;;;;;4261733;27;20421;-81
2024/01/13 05:45:43;;;;;;;33.03;19.27;;;2.00;99.90;;;;;;4258307;27;20035;-81
2024/01/13 05:47:45;;;;;;;33.00;19.90;;;2.00;99.90;;;;;;4240387;28;20050;-81
2024/01/13 05:49:47;;;;;;;35.08;19.17;;;2.00;99.90;;;;;;4258387;27;20043;-81
2024/01/13 05:51:50;;;;;;;31.13;17.83;;;2.00;99.90;;;;;;4259460;27;20057;-82
2024/01/13 05:53:52;;;;;;;33.58;18.88;;;2.00;99.90;;;;;;4259815;27;20050;-82
2024/01/13 05:55:55;;;;;;;32.95;19.52;;;2.00;99.90;;;;;;4261224;27;20043;-82
2024/01/13 05:57:57;;;;;;;35.03;19.52;;;1.90;99.90;;;;;;4259290;27;20039;-82
2024/01/13 06:00:00;;;;;;;30.60;18.60;;;1.80;99.90;;;;;;4256429;27;20047;-80
2024/01/13 06:02:02;;;;;;;27.88;17.60;;;1.80;99.90;;;;;;4255203;27;20054;-80
2024/01/13 06:04:04;;;;;;;33.65;19.55;;;2.00;99.90;;;;;;4255553;27;20122;-80
2024/01/13 06:06:07;;;;;;;35.85;19.45;;;1.90;99.90;;;;;;4257817;27;20134;-81
2024/01/13 06:08:10;;;;;;;31.77;18.60;;;1.90;99.90;;;;;;4257291;27;20078;-80
2024/01/13 06:10:14;;;;;;;31.27;17.98;;;1.80;99.90;;;;;;4241238;28;20502;-82
2024/01/13 06:12:18;;;;;;;33.00;19.20;;;1.70;99.90;;;;;;4259630;27;20043;-81
2024/01/13 06:14:20;;;;;;;31.40;18.58;;;1.90;99.90;;;;;;4258652;27;20161;-80
2024/01/13 06:16:22;;;;;;;34.90;19.02;;;2.00;99.90;;;;;;4260853;27;20093;-82
2024/01/13 06:18:24;;;;;;;30.30;18.33;;;1.90;99.90;;;;;;4258130;27;20482;-81
2024/01/13 06:20:27;;;;;;;35.85;20.52;;;1.90;99.90;;;;;;4239238;28;20047;-81
2024/01/13 06:22:29;;;;;;;30.67;18.00;;;2.00;99.90;;;;;;4237963;28;20070;-80
2024/01/13 06:24:31;;;;;;;32.83;19.40;;;2.20;99.90;;;;;;4258151;27;20564;-81
2024/01/13 06:26:37;;;;;;;33.60;19.60;;;2.30;99.90;;;;;;4255793;27;20122;-80
2024/01/13 06:28:41;;;;;;;30.33;17.23;;;2.20;99.90;;;;;;4233109;28;20047;-78
2024/01/13 06:30:44;;;;;;;29.25;17.25;;;2.30;99.90;;;;;;4251134;27;20051;-78
2024/01/13 06:32:46;;;;;;;29.33;16.75;;;2.20;99.90;;;;;;4253478;27;20043;-81
2024/01/13 06:34:48;;;;;;;33.13;19.52;;;2.20;99.90;;;;;;4255508;27;20046;-81
2024/01/13 06:36:51;;;;;;;34.85;19.23;;;2.00;99.90;;;;;;4258235;27;20109;-81
2024/01/13 06:38:53;;;;;;;29.27;17.15;;;1.80;99.90;;;;;;4238537;28;20414;-80
2024/01/13 06:40:55;;;;;;;29.05;17.00;;;1.90;99.90;;;;;;4253912;27;20134;-80
2024/01/13 06:42:57;;;;;;;31.58;18.20;;;1.80;99.90;;;;;;4253786;27;20051;-80
2024/01/13 06:45:01;;;;;;;31.77;17.65;;;1.60;99.90;;;;;;4254409;27;20050;-80
2024/01/13 06:47:04;;;;;;;33.78;19.00;;;1.50;99.90;;;;;;4255689;27;20045;-80
2024/01/13 06:49:06;;;;;;;31.42;18.52;;;1.40;99.90;;;;;;4255777;27;20414;-80
2024/01/13 06:51:09;;;;;;;30.42;17.77;;;1.50;99.90;;;;;;4256103;27;20062;-81
2024/01/13 06:53:11;;;;;;;27.48;16.63;;;1.50;99.90;;;;;;4256646;27;20053;-80
2024/01/13 06:55:16;;;;;;;31.58;17.67;;;1.50;99.90;;;;;;4254478;27;20035;-80
2024/01/13 06:57:18;;;;;;;34.45;19.23;;;1.50;99.90;;;;;;4255707;27;20050;-81
2024/01/13 06:59:20;;;;;;;32.03;18.85;;;1.40;99.90;;;;;;4258561;27;20058;-81
2024/01/13 07:01:23;;;;;;;31.13;18.13;;;1.40;99.90;;;;;;4253945;27;20043;-80
2024/01/13 07:03:25;;;;;;;25.17;16.15;;;1.50;99.90;;;;;;4255644;27;20047;-81
2024/01/13 07:05:28;;;;;;;27.60;16.95;;;1.40;99.90;;;;;;4255805;27;20046;-80
2024/01/13 07:07:31;;;;;;;26.48;16.52;;;1.30;99.90;;;;;;4255710;27;20050;-81
2024/01/13 07:09:33;;;;;;;27.10;16.05;;;1.30;99.90;;;;;;4258408;27;20050;-80
2024/01/13 07:11:35;;;;;;;33.97;19.70;;;1.40;99.90;;;;;;4256826;27;20050;-81
2024/01/13 07:13:37;;;;;;;30.77;18.63;;;1.40;99.90;;;;;;4257288;27;20043;-81
2024/01/13 07:15:39;;;;;;;33.10;19.88;;;1.40;99.90;;;;;;4257986;27;20049;-81
2024/01/13 07:17:43;;;;;;;31.63;18.10;;;1.40;99.90;;;;;;4258837;27;20058;-82
2024/01/13 07:19:46;;;;;;;34.47;20.17;;;1.30;99.90;;;;;;4258713;27;20043;-81
2024/01/13 07:21:48;;;;;;;31.48;19.42;;;1.30;99.90;;;;;;4257446;27;20043;-80
2024/01/13 07:23:50;;;;;;;31.98;19.10;;;1.30;99.90;;;;;;4257779;27;20050;-81
2024/01/13 07:25:52;;;;;;;28.85;17.15;;;1.30;99.90;;;;;;4257641;27;20056;-81
2024/01/13 07:27:54;;;;;;;24.50;15.40;;;1.40;99.90;;;;;;4257033;27;20067;-80
2024/01/13 07:29:58;;;;;;;28.05;16.95;;;1.30;99.90;;;;;;4240176;28;20051;-81
2024/01/13 07:32:03;;;;;;;26.60;17.20;;;1.30;99.90;;;;;;4239362;28;20052;-80
2024/01/13 07:34:07;;;;;;;31.30;18.42;;;1.30;99.90;;;;;;4241090;28;20120;-81
2024/01/13 07:36:12;;;;;;;28.48;17.00;;;1.40;99.90;;;;;;4241322;28;20048;-80
2024/01/13 07:38:14;;;;;;;29.73;17.85;;;1.50;99.90;;;;;;4241670;28;20044;-81
2024/01/13 07:40:18;;;;;;;26.48;16.33;;;1.40;99.90;;;;;;4241916;28;20047;-81
2024/01/13 07:42:20;;;;;;;29.05;18.08;;;1.50;99.90;;;;;;4241831;28;20060;-81
2024/01/13 07:44:22;;;;;;;29.90;18.25;;;1.60;99.90;;;;;;4241066;28;20390;-81
2024/01/13 07:46:24;;;;;;;31.60;18.92;;;1.60;99.90;;;;;;4239653;28;20405;-81
2024/01/13 07:48:26;;;;;;;34.22;20.70;;;1.50;99.90;;;;;;4240646;28;20524;-80
2024/01/13 07:50:30;;;;;;;34.28;20.40;;;1.60;99.90;;;;;;4240900;28;20043;-81
2024/01/13 07:52:32;;;;;;;33.63;19.95;;;1.50;99.90;;;;;;4241704;28;20078;-81
2024/01/13 07:54:34;;;;;;;32.72;18.45;;;1.50;99.90;;;;;;4242880;28;20046;-81
2024/01/13 07:56:36;;;;;;;33.45;19.77;;;1.60;99.90;;;;;;4242909;28;20397;-81
2024/01/13 07:58:38;;;;;;;32.55;20.50;;;1.60;99.90;;;;;;4240803;28;20047;-82
2024/01/13 08:00:40;;;;;;;34.42;20.73;;;1.60;99.90;;;;;;4240733;28;20127;-80
2024/01/13 08:02:43;;;;;;;37.33;20.52;;;1.70;99.90;;;;;;4240916;28;20146;-81
2024/01/13 08:04:45;;;;;;;30.90;19.15;;;1.80;99.90;;;;;;4240850;28;20044;-81
2024/01/13 08:06:48;;;;;;;35.72;21.27;;;1.70;99.90;;;;;;4240681;28;20040;-81
2024/01/13 08:08:51;;;;;;;37.78;22.70;;;1.80;99.90;;;;;;4241066;28;20047;-81
2024/01/13 08:10:53;;;;;;;35.38;20.88;;;1.70;99.90;;;;;;4239736;28;20482;-81
2024/01/13 08:12:55;;;;;;;35.55;20.98;;;1.80;99.90;;;;;;4238598;28;20069;-80
2024/01/13 08:14:57;;;;;;;40.72;22.48;;;1.90;99.90;;;;;;4239358;28;20048;-80
2024/01/13 08:16:59;;;;;;;35.28;20.90;;;1.70;99.90;;;;;;4238753;28;20047;-81
2024/01/13 08:19:02;;;;;;;34.30;20.95;;;1.80;99.90;;;;;;4239361;28;20469;-81
2024/01/13 08:21:04;;;;;;;33.30;20.15;;;1.80;99.90;;;;;;4238734;28;20048;-81
2024/01/13 08:23:08;;;;;;;33.97;20.85;;;2.00;99.90;;;;;;4238642;28;20035;-81
2024/01/13 08:25:10;;;;;;;39.97;22.10;;;2.00;99.90;;;;;;4238596;28;20450;-81
2024/01/13 08:27:12;;;;;;;38.60;22.63;;;2.00;99.90;;;;;;4249058;27;20130;-79
2024/01/13 08:29:14;;;;;;;41.45;22.90;;;2.00;99.90;;;;;;4250975;27;20081;-78
2024/01/13 08:31:16;;;;;;;40.00;22.35;;;2.10;99.90;;;;;;4230529;28;20062;-78
2024/01/13 08:33:31;;;;;;;;;;;2.10;99.90;;;;;;4249014;27;20051;-78
2024/01/13 08:35:33;;;;;;;42.30;22.27;;;2.10;99.90;;;;;;4248678;27;19923;-78
2024/01/13 08:37:36;;;;;;;41.03;22.52;;;2.10;99.90;;;;;;4248521;27;20043;-78
2024/01/13 08:39:43;;;;;;;37.78;22.33;;;2.00;99.90;;;;;;4248489;27;20043;-78
2024/01/13 08:41:45;;;;;;;37.20;22.00;;;2.10;99.90;;;;;;4248324;27;20043;-78
2024/01/13 08:43:48;;;;;;;37.72;22.17;;;2.00;99.90;;;;;;4248247;27;20059;-79
2024/01/13 08:45:50;;;;;;;39.53;21.58;;;2.10;99.90;;;;;;4248298;28;20051;-78
2024/01/13 08:47:52;;;;;;;38.30;21.45;;;2.00;99.90;;;;;;4230179;28;20104;-78
2024/01/13 08:49:55;;;;;;;34.63;21.13;;;1.90;99.90;;;;;;4248539;28;20051;-78
2024/01/13 08:51:57;;;;;;;39.25;21.33;;;1.90;99.90;;;;;;4248531;28;20138;-78
2024/01/13 08:53:59;;;;;;;39.28;21.50;;;1.90;99.90;;;;;;4248155;28;20069;-77
2024/01/13 08:56:03;;;;;;;40.97;21.20;;;1.90;99.90;;;;;;4248431;28;20043;-78
2024/01/13 08:58:05;;;;;;;40.13;22.13;;;1.90;99.90;;;;;;4247754;28;20047;-77
2024/01/13 09:00:08;;;;;;;44.28;22.23;;;1.80;99.90;;;;;;4248119;28;20053;-79
2024/01/13 09:02:11;;;;;;;43.15;22.05;;;1.80;99.90;;;;;;4251527;28;20479;-81
2024/01/13 09:04:13;;;;;;;41.13;22.95;;;1.80;99.90;;;;;;4253489;27;20513;-80
2024/01/13 09:06:16;;;;;;;42.92;22.30;;;1.80;99.90;;;;;;4252464;28;20054;-80
2024/01/13 09:08:18;;;;;;;44.15;23.05;;;1.70;99.90;;;;;;4252812;28;20043;-81
2024/01/13 09:10:20;;;;;;;36.15;21.40;;;1.70;99.90;;;;;;4254088;28;20118;-80
2024/01/13 09:12:23;;;;;;;36.75;21.38;;;1.70;99.90;;;;;;4254576;28;20043;-81
2024/01/13 09:14:25;;;;;;;44.55;22.25;;;1.70;99.90;;;;;;4254778;28;20482;-80
2024/01/13 09:16:29;;;;;;;34.67;20.75;;;1.60;99.90;;;;;;4254051;28;20066;-81
2024/01/13 09:18:32;;;;;;;39.08;21.25;;;1.60;99.90;;;;;;4254391;28;20508;-81
2024/01/13 09:20:35;;;;;;;42.00;22.25;;;1.60;99.90;;;;;;4253133;28;20054;-81
2024/01/13 09:22:39;;;;;;;37.70;20.33;;;1.70;99.90;;;;;;4252910;28;20092;-80
2024/01/13 09:24:42;;;;;;;37.67;20.70;;;1.70;99.90;;;;;;4252256;28;20043;-81
2024/01/13 09:26:45;;;;;;;36.67;20.38;;;1.70;99.90;;;;;;4235288;28;20047;-81
2024/01/13 09:28:53;;;;;;;42.85;22.92;;;1.80;99.90;;;;;;4251251;27;20039;-81
2024/01/13 09:30:55;;;;;;;43.50;22.55;;;1.60;99.90;;;;;;4251725;28;20043;-81
2024/01/13 09:32:58;;;;;;;37.75;21.48;;;1.70;99.90;;;;;;4253607;28;20044;-81
2024/01/13 09:35:00;;;;;;;39.53;20.80;;;1.80;99.90;;;;;;4256347;28;20064;-81
2024/01/13 09:37:02;;;;;;;37.30;19.67;;;1.80;99.90;;;;;;4256347;28;20043;-81
2024/01/13 09:39:04;;;;;;;38.72;21.45;;;1.80;99.90;;;;;;4254677;28;20043;-81
2024/01/13 09:41:07;;;;;;;40.20;21.67;;;1.90;99.90;;;;;;4254250;28;20493;-81
2024/01/13 09:43:20;;;;;;;39.17;21.65;;;1.70;99.90;;;;;;4254803;28;20070;-80
2024/01/13 09:45:24;;;;;;;38.05;20.83;;;1.80;99.90;;;;;;4251834;28;20112;-64
2024/01/13 09:47:27;;;;;;;44.25;22.65;;;1.90;99.90;;;;;;4247334;28;20126;-64
2024/01/13 09:49:30;;;;;;;42.03;22.98;;;1.80;99.90;;;;;;4247007;28;20592;-63
2024/01/13 09:51:38;;;;;;;39.92;22.30;;;1.70;99.90;;;;;;4228739;28;20039;-63
2024/01/13 09:53:47;;;;;;;38.70;22.17;;;1.80;99.90;;;;;;4247201;28;20566;-63
2024/01/13 09:55:53;;;;;;;41.42;21.13;;;1.70;99.90;;;;;;4246914;27;20039;-64
2024/01/13 09:57:55;;;;;;;38.17;21.30;;;1.60;99.90;;;;;;4250099;27;20191;-63
2024/01/13 09:59:57;;;;;;;31.83;19.00;;;1.60;99.90;;;;;;4250014;27;20074;-63
2024/01/13 10:02:02;;;;;;;43.13;22.60;;;1.60;99.90;;;;;;4249664;27;20097;-63
2024/01/13 10:04:07;;;;;;;37.22;20.35;;;1.70;99.90;;;;;;4243037;27;20093;-64
2024/01/13 10:06:10;;;;;;;40.22;21.45;;;1.50;99.90;;;;;;4246926;27;20089;-64
2024/01/13 10:08:12;;;;;;;31.63;18.33;;;2.00;99.90;;;;;;4239988;27;20119;-64
2024/01/13 10:10:16;;;;;;;31.73;18.90;;;2.30;99.90;;;;;;4236393;27;20043;-64
2024/01/13 10:12:19;;;;;;;39.67;20.17;;;2.30;99.90;;;;;;4231607;27;20062;-65
2024/01/13 10:14:23;;;;;;;37.00;20.05;;;2.50;99.90;;;;;;4242562;27;20572;-64
2024/01/13 10:16:27;;;;;;;35.70;19.95;;;2.60;99.90;;;;;;4235932;27;20047;-64
2024/01/13 10:18:31;;;;;;;38.97;21.20;;;2.50;99.90;;;;;;4248635;27;20074;-64
2024/01/13 10:20:34;;;;;;;26.65;14.77;;;2.60;99.90;;;;;;4247427;27;20126;-66
2024/01/13 10:22:37;;;;;;;30.67;18.17;;;2.90;99.90;;;;;;4225966;28;20050;-64
2024/01/13 10:24:39;;;;;;;31.42;18.75;;;3.00;99.90;;;;;;4245522;27;20067;-64
2024/01/13 10:26:42;;;;;;;35.17;19.35;;;3.30;99.90;;;;;;4239518;27;20046;-62
2024/01/13 10:28:44;;;;;;;32.42;19.25;;;3.30;99.90;;;;;;4248324;27;20051;-65
2024/01/13 10:30:49;;;;;;;34.03;20.38;;;3.30;99.80;;;;;;4248311;27;20433;-64
2024/01/13 10:32:51;;;;;;;33.20;19.80;;;3.30;99.90;;;;;;4248494;27;20049;-64